FC2ブログ

ディスパッチャーの航空気象情報

運航管理者が航空に関する気象情報サイトを集めました。 フライト前に天気チェックに。ディスパッチャーになりたい人に。
上記の広告は1ヶ月以上更新のないブログに表示されています。
新しい記事を書く事で広告が消せます。
日本列島を3つの低気圧が通過する。
九州から本州南岸を通過する低気圧の影響で、西日本は朝から、東海は午後から雨で、九州では雨脚の強まる所も。
北日本も、日本海や北海道の北を進む低気圧の影響で、日本海側を中心に湿った雪や雨。
雨雲の隙間に入る関東は、大きな崩れがなくてすみそう。
気温は全国的に高めで、山間部では引き続き雪崩に注意が必要。

by 天気のツボ

今日は福岡のTAFを

TAF RJFF 310236Z 3103/0106 05004KT 8000 FEW010 SCT020 BKN035
TEMPO 3103/3109 4500 -RA BR
TEMPO 0100/0103 4000 RA BR
TEMPO 0103/0106 3000 RA BR FEW005 BKN009 BKN015=


3つの低気圧が通過することは非常に珍しいですね。
全国的に雨模様ですね。


天気・気象学のホームページをチェック
コメント
この記事へのコメント
相互リンクのご提案
ありがとうございます^^

航空関係ということなので
喜んで受けさせていただきます!
2010/01/31(日) 17:24:12 | URL | shige #-[ 編集]
Re: タイトルなし
よろしくお願いします。
2010/02/01(月) 11:14:44 | URL | しんのすけ #-[ 編集]
コメントを投稿する
URL:
Comment:
Pass:
秘密: 管理者にだけ表示を許可する
 
トラックバック
この記事のトラックバックURL
http://wxdisp.blog113.fc2.com/tb.php/9-a8d1937f
この記事にトラックバックする(FC2ブログユーザー)
この記事へのトラックバック
上記広告は1ヶ月以上更新のないブログに表示されています。新しい記事を書くことで広告を消せます。